Time;durP1;ratioP1;P1;durP2;ratioP2;P2;SDS_P1;SDS_P2;PMS_P1;PMS_P2;Temp;Humidity;BMP_temperature;BMP_pressure;BME280_temperature;BME280_humidity;BME280_pressure;Samples;Min_cycle;Max_cycle;Signal;HPM_P1;HPM_P2
2022/07/12 00:01:51;;;;;;;4.10;2.20;;;;;;;20.69;53.57;102299.03;5052329;28;20414;-66
2022/07/12 00:04:22;;;;;;;3.97;2.30;;;;;;;20.68;54.05;102303.66;5053124;28;20123;-66
2022/07/12 00:06:49;;;;;;;3.42;2.20;;;;;;;20.67;53.68;102303.78;5052381;28;20139;-66
2022/07/12 00:09:16;;;;;;;3.05;2.40;;;;;;;20.65;53.83;102306.66;5052127;28;20404;-66
2022/07/12 00:11:42;;;;;;;4.35;2.10;;;;;;;20.63;53.58;102314.13;5052269;28;20398;-65
2022/07/12 00:14:13;;;;;;;1.63;1.27;;;;;;;20.61;53.95;102313.38;5052954;28;20037;-66
2022/07/12 00:16:40;;;;;;;2.03;1.40;;;;;;;20.58;53.68;102306.34;5052685;28;20060;-66
2022/07/12 00:19:08;;;;;;;3.10;1.60;;;;;;;20.55;53.61;102295.72;5051901;28;20095;-66
2022/07/12 00:21:35;;;;;;;1.70;1.58;;;;;;;20.52;53.63;102297.84;5051726;28;20439;-67
2022/07/12 00:24:06;;;;;;;1.77;1.48;;;;;;;20.49;54.04;102293.53;5051898;28;20487;-66
2022/07/12 00:26:32;;;;;;;2.03;1.65;;;;;;;20.45;54.14;102289.34;5052179;28;20041;-65
2022/07/12 00:28:59;;;;;;;1.60;1.50;;;;;;;20.41;53.84;102293.34;5051539;28;20107;-65
2022/07/12 00:31:26;;;;;;;1.70;1.60;;;;;;;20.36;53.83;102290.16;5051876;28;20355;-65
2022/07/12 00:34:17;;;;;;;1.58;1.40;;;;;;;20.32;53.87;102294.16;5051482;28;20043;-66
2022/07/12 00:36:44;;;;;;;1.85;1.70;;;;;;;20.30;53.83;102291.56;5051336;28;20487;-66
2022/07/12 00:39:10;;;;;;;1.98;1.17;;;;;;;20.25;54.07;102288.38;5050853;28;20138;-66
2022/07/12 00:41:37;;;;;;;1.20;1.10;;;;;;;20.23;54.20;102284.94;5051274;28;20047;-66
2022/07/12 00:44:04;;;;;;;1.13;0.95;;;;;;;20.23;54.04;102284.94;5051447;28;20065;-66
2022/07/12 00:46:31;;;;;;;1.60;1.08;;;;;;;20.23;54.19;102284.06;5051794;28;20456;-66
2022/07/12 00:48:58;;;;;;;1.20;1.10;;;;;;;20.22;54.13;102277.75;5051013;28;20064;-65
2022/07/12 00:51:25;;;;;;;1.40;1.30;;;;;;;20.20;53.90;102279.75;5051328;28;20401;-66
2022/07/12 00:53:54;;;;;;;2.25;1.20;;;;;;;20.18;53.88;102284.47;5051311;28;20052;-65
2022/07/12 00:56:21;;;;;;;1.65;1.30;;;;;;;20.19;53.91;102278.00;5051561;28;20052;-66
2022/07/12 00:58:48;;;;;;;1.55;1.17;;;;;;;20.18;54.06;102280.88;5050863;28;20037;-65
2022/07/12 01:01:14;;;;;;;1.50;1.40;;;;;;;20.17;53.86;102282.75;5051392;28;20043;-65
2022/07/12 01:03:42;;;;;;;1.35;1.25;;;;;;;20.15;53.89;102287.47;5051843;28;20419;-65
2022/07/12 01:06:10;;;;;;;1.98;1.50;;;;;;;20.14;53.76;102284.88;5055318;28;20065;-65
2022/07/12 01:08:37;;;;;;;1.70;1.60;;;;;;;20.12;53.75;102284.16;5055117;28;20492;-66
2022/07/12 01:11:04;;;;;;;2.33;1.58;;;;;;;20.11;53.97;102283.28;5055395;28;20051;-66
2022/07/12 01:13:32;;;;;;;2.50;2.30;;;;;;;20.08;53.86;102280.84;5055188;28;20033;-67
2022/07/12 01:15:59;;;;;;;2.90;2.60;;;;;;;20.06;53.92;102285.53;5055131;28;20045;-67
2022/07/12 01:18:27;;;;;;;4.30;2.35;;;;;;;20.04;54.03;102284.81;5055072;28;20526;-66
2022/07/12 01:20:54;;;;;;;2.40;2.10;;;;;;;20.03;54.13;102279.47;5055145;28;20145;-67
2022/07/12 01:23:22;;;;;;;2.70;1.90;;;;;;;20.02;54.31;102289.53;5055338;28;20399;-67
2022/07/12 01:25:49;;;;;;;2.60;2.10;;;;;;;20.01;53.98;102287.81;5055446;28;20051;-67
2022/07/12 01:28:16;;;;;;;2.25;2.05;;;;;;;19.99;54.25;102287.06;5054528;28;20071;-67
2022/07/12 01:30:43;;;;;;;2.58;2.38;;;;;;;19.97;54.10;102295.38;5055053;28;20066;-67
2022/07/12 01:33:15;;;;;;;3.05;1.90;;;;;;;19.95;53.94;102299.25;5055369;28;20041;-66
2022/07/12 01:35:43;;;;;;;2.20;2.00;;;;;;;19.91;54.30;102306.84;5055008;28;20092;-67
2022/07/12 01:38:10;;;;;;;2.28;2.08;;;;;;;19.87;54.05;102304.50;5054845;28;20116;-66
2022/07/12 01:40:36;;;;;;;2.78;2.38;;;;;;;19.84;54.19;102311.09;5054787;28;20108;-67
2022/07/12 01:43:06;;;;;;;2.38;2.17;;;;;;;19.80;54.38;102317.81;5054785;28;20041;-66
2022/07/12 01:45:33;;;;;;;4.47;3.08;;;;;;;19.78;54.52;102321.66;5054783;28;20060;-66
2022/07/12 01:48:00;;;;;;;3.70;2.70;;;;;;;19.72;54.47;102316.75;5054311;28;20044;-66
2022/07/12 01:50:26;;;;;;;2.90;2.70;;;;;;;19.67;54.57;102323.47;5054748;28;20029;-66
2022/07/12 01:52:54;;;;;;;2.60;2.40;;;;;;;19.61;54.65;102324.00;5053437;28;20041;-66
2022/07/12 01:55:21;;;;;;;1.80;1.70;;;;;;;19.54;54.90;102317.34;5054492;28;20045;-66
2022/07/12 01:57:48;;;;;;;1.42;1.30;;;;;;;19.49;54.99;102325.00;5054400;28;20041;-66
2022/07/12 02:00:14;;;;;;;1.58;1.48;;;;;;;19.44;54.99;102329.13;5054775;28;20029;-66
2022/07/12 02:02:46;;;;;;;1.25;1.15;;;;;;;19.41;54.98;102323.94;5054285;28;20509;-66
2022/07/12 02:05:13;;;;;;;1.10;1.00;;;;;;;19.41;55.20;102322.06;5053738;28;20049;-66
2022/07/12 02:07:41;;;;;;;1.08;0.95;;;;;;;19.41;55.15;102319.34;5054240;28;20045;-66
2022/07/12 02:10:08;;;;;;;0.90;0.90;;;;;;;19.42;54.75;102312.03;5054319;28;20119;-66
2022/07/12 02:12:37;;;;;;;0.80;0.80;;;;;;;19.42;54.88;102321.09;5054049;28;20132;-67
2022/07/12 02:15:06;;;;;;;1.73;1.10;;;;;;;19.41;55.05;102311.19;5053751;28;20560;-66
2022/07/12 02:17:33;;;;;;;1.83;1.00;;;;;;;19.39;54.78;102301.41;5052977;28;20049;-67
2022/07/12 02:19:59;;;;;;;1.27;1.17;;;;;;;19.35;54.60;102307.13;5054524;28;20051;-66
2022/07/12 02:22:26;;;;;;;3.47;1.80;;;;;;;19.31;54.63;102299.31;5054124;28;20052;-66
2022/07/12 02:25:01;;;;;;;1.52;1.30;;;;;;;19.28;54.62;102307.72;5053427;28;20135;-66
2022/07/12 02:27:27;;;;;;;1.83;1.58;;;;;;;19.26;54.50;102296.97;5054145;28;20486;-65
2022/07/12 02:29:54;;;;;;;2.13;1.92;;;;;;;19.26;54.72;102293.38;5034387;28;20045;-65
2022/07/12 02:32:21;;;;;;;2.22;2.03;;;;;;;19.22;54.56;102295.50;5034046;28;20048;-65
2022/07/12 02:34:50;;;;;;;2.10;1.90;;;;;;;19.18;54.74;102296.75;5042817;28;20052;-66
2022/07/12 02:37:17;;;;;;;1.98;1.80;;;;;;;19.14;54.25;102294.44;5052587;28;20427;-65
2022/07/12 02:39:43;;;;;;;3.25;2.40;;;;;;;19.10;54.26;102299.25;5054053;28;20045;-65
2022/07/12 02:42:10;;;;;;;2.33;2.00;;;;;;;19.05;54.49;102301.50;5053304;28;20051;-65
2022/07/12 02:44:36;;;;;;;2.28;2.08;;;;;;;19.02;54.76;102299.03;5054141;28;20045;-66
2022/07/12 02:47:03;;;;;;;3.20;1.98;;;;;;;18.99;54.47;102296.56;5054059;28;20040;-66
2022/07/12 02:49:30;;;;;;;2.60;2.40;;;;;;;18.96;54.35;102297.69;5053961;28;20116;-65
2022/07/12 02:51:56;;;;;;;3.38;3.08;;;;;;;18.95;54.47;102303.28;5053320;28;20064;-65
2022/07/12 02:54:26;;;;;;;3.30;3.00;;;;;;;18.94;54.97;102299.69;5054025;28;20114;-65
2022/07/12 02:56:52;;;;;;;3.47;3.03;;;;;;;18.94;55.16;102298.81;5053791;28;20574;-65
2022/07/12 02:59:19;;;;;;;4.45;3.80;;;;;;;18.91;55.04;102299.94;5053708;28;20136;-66
2022/07/12 03:01:45;;;;;;;3.90;3.47;;;;;;;18.92;54.84;102303.53;5052904;28;20407;-66
2022/07/12 03:04:16;;;;;;;3.40;3.10;;;;;;;18.91;55.05;102302.66;5053588;28;20033;-66
2022/07/12 03:06:43;;;;;;;4.53;3.28;;;;;;;18.91;55.22;102299.06;5053245;28;20041;-66
2022/07/12 03:09:09;;;;;;;5.88;4.45;;;;;;;18.88;54.91;102304.78;5053625;28;20044;-66
2022/07/12 03:11:36;;;;;;;3.90;3.55;;;;;;;18.81;55.34;102298.13;5052918;28;20040;-67
2022/07/12 03:14:03;;;;;;;3.13;2.83;;;;;;;18.75;55.28;102296.75;5053472;28;20399;-65
2022/07/12 03:16:30;;;;;;;3.78;3.42;;;;;;;18.69;55.01;102295.41;5053176;28;20067;-65
2022/07/12 03:18:56;;;;;;;3.50;3.08;;;;;;;18.65;55.42;102298.50;5052049;28;20037;-66
2022/07/12 03:21:23;;;;;;;3.00;2.80;;;;;;;18.64;55.28;102296.78;5054246;28;20551;-66
2022/07/12 03:23:51;;;;;;;3.25;3.03;;;;;;;18.65;55.37;102295.78;5055352;28;20104;-66
2022/07/12 03:26:17;;;;;;;2.90;2.70;;;;;;;18.63;55.56;102289.63;5054394;28;20037;-66
2022/07/12 03:28:44;;;;;;;3.10;2.80;;;;;;;18.63;54.96;102303.22;5055259;28;20052;-66
2022/07/12 03:31:11;;;;;;;5.47;3.28;;;;;;;18.61;55.37;102294.28;5055620;28;20128;-67
2022/07/12 03:33:41;;;;;;;3.80;3.42;;;;;;;18.61;55.30;102297.00;5054410;28;20048;-67
2022/07/12 03:36:08;;;;;;;3.15;2.90;;;;;;;18.59;54.87;102294.41;5056131;28;20053;-66
2022/07/12 03:38:36;;;;;;;3.35;3.05;;;;;;;18.57;55.36;102295.50;5058127;28;20579;-66
2022/07/12 03:41:03;;;;;;;3.95;3.28;;;;;;;18.54;54.91;102301.19;5053573;28;20123;-66
2022/07/12 03:43:33;;;;;;;4.07;3.67;;;;;;;18.50;54.98;102291.53;5052477;28;20548;-66
2022/07/12 03:46:00;;;;;;;3.75;3.45;;;;;;;18.48;54.86;102299.84;5052595;28;20083;-66
2022/07/12 03:48:27;;;;;;;4.05;3.60;;;;;;;18.47;55.02;102299.97;5052265;28;20037;-66
2022/07/12 03:50:53;;;;;;;6.47;3.65;;;;;;;18.47;54.87;102297.25;5052245;28;20044;-66
2022/07/12 03:53:24;;;;;;;4.13;3.50;;;;;;;18.47;55.17;102299.97;5052311;28;20135;-66
2022/07/12 03:55:51;;;;;;;3.78;3.47;;;;;;;18.47;54.96;102300.81;5052445;28;20081;-66
2022/07/12 03:58:18;;;;;;;4.07;3.47;;;;;;;18.48;55.56;102304.41;5052427;28;20051;-67
2022/07/12 04:00:44;;;;;;;3.50;3.20;;;;;;;18.47;55.14;102295.38;5051943;28;20064;-66
2022/07/12 04:03:15;;;;;;;4.13;3.72;;;;;;;18.48;55.47;102301.69;5052265;28;20049;-67
2022/07/12 04:05:41;;;;;;;3.42;3.13;;;;;;;18.47;55.53;102294.50;5051684;28;20417;-66
2022/07/12 04:08:08;;;;;;;4.75;3.80;;;;;;;18.45;55.21;102300.09;5052211;28;20483;-66
2022/07/12 04:10:35;;;;;;;3.95;3.45;;;;;;;18.45;55.19;102296.50;5051974;28;20033;-66
2022/07/12 04:13:05;;;;;;;3.83;3.42;;;;;;;18.45;55.29;102301.94;5051860;28;20410;-66
2022/07/12 04:15:32;;;;;;;4.70;3.67;;;;;;;18.43;55.23;102299.34;5051936;28;20044;-66
2022/07/12 04:17:58;;;;;;;3.80;3.50;;;;;;;18.41;55.39;102301.31;5052325;28;20036;-66
2022/07/12 04:20:25;;;;;;;4.32;3.92;;;;;;;18.39;55.33;102297.84;5050374;28;20057;-66
2022/07/12 04:22:55;;;;;;;3.63;3.33;;;;;;;18.37;55.15;102302.56;5051710;28;20043;-67
2022/07/12 04:25:22;;;;;;;4.35;3.50;;;;;;;18.33;55.45;102292.91;5051983;28;20033;-66
2022/07/12 04:27:49;;;;;;;4.10;3.33;;;;;;;18.31;55.14;102289.47;5051810;28;20037;-66
2022/07/12 04:30:15;;;;;;;4.57;4.00;;;;;;;18.27;55.15;102290.69;5051572;28;20425;-66
2022/07/12 04:32:46;;;;;;;5.10;4.70;;;;;;;18.24;55.53;102294.53;5051794;28;20056;-66
2022/07/12 04:35:12;;;;;;;4.45;4.00;;;;;;;18.23;55.28;102294.66;5051219;28;20055;-66
2022/07/12 04:37:39;;;;;;;4.65;4.25;;;;;;;18.23;55.34;102294.66;5050297;28;20041;-66
2022/07/12 04:40:06;;;;;;;5.53;4.38;;;;;;;18.24;55.65;102307.25;5050990;28;20047;-67
2022/07/12 04:42:36;;;;;;;6.25;4.13;;;;;;;18.28;55.54;102309.59;5051101;28;20041;-68
2022/07/12 04:45:03;;;;;;;5.75;4.32;;;;;;;18.30;55.78;102304.91;5051440;28;20052;-67
2022/07/12 04:47:30;;;;;;;5.82;5.28;;;;;;;18.33;55.74;102314.69;5051346;28;20053;-66
2022/07/12 04:49:56;;;;;;;6.50;5.80;;;;;;;18.36;55.75;102317.16;5050989;28;20040;-67
2022/07/12 04:52:24;;;;;;;7.43;6.72;;;;;;;18.38;56.13;102321.47;5051120;28;20399;-67
2022/07/12 04:54:50;;;;;;;8.82;6.78;;;;;;;18.41;56.05;102318.50;5051439;28;20059;-67
2022/07/12 04:57:17;;;;;;;7.97;6.80;;;;;;;18.45;56.16;102310.97;5051386;28;20045;-67
2022/07/12 04:59:43;;;;;;;7.18;6.47;;;;;;;18.48;56.60;102307.13;5050988;28;20036;-66
2022/07/12 05:02:10;;;;;;;6.97;6.20;;;;;;;18.54;56.84;102312.06;5050128;28;20052;-66
2022/07/12 05:04:36;;;;;;;6.88;6.18;;;;;;;18.59;56.99;102309.88;5051075;28;20079;-66
2022/07/12 05:07:03;;;;;;;9.10;6.90;;;;;;;18.65;56.80;102312.13;5049952;28;20041;-66
2022/07/12 05:09:30;;;;;;;8.18;7.47;;;;;;;18.71;57.01;102309.75;5050691;28;20557;-66
2022/07/12 05:11:56;;;;;;;8.27;7.47;;;;;;;18.76;57.00;102312.09;5051312;28;20044;-66
2022/07/12 05:14:23;;;;;;;8.63;7.75;;;;;;;18.80;57.19;102313.56;5051343;28;20429;-67
2022/07/12 05:16:50;;;;;;;8.00;7.20;;;;;;;18.82;57.49;102327.94;5051039;28;20048;-66
2022/07/12 05:19:16;;;;;;;8.95;8.15;;;;;;;18.87;57.38;102325.69;5051124;28;20037;-67
2022/07/12 05:21:43;;;;;;;10.70;9.45;;;;;;;18.91;57.62;102327.16;5050555;28;20404;-67
2022/07/12 05:24:11;;;;;;;10.35;9.35;;;;;;;18.96;58.08;102329.50;5051259;28;20064;-66
2022/07/12 05:26:38;;;;;;;10.60;9.50;;;;;;;19.01;58.34;102330.84;5050870;28;20064;-66
2022/07/12 05:29:04;;;;;;;10.07;9.07;;;;;;;19.07;58.24;102332.19;5050933;28;20041;-67
2022/07/12 05:31:31;;;;;;;10.32;9.23;;;;;;;19.13;58.66;102333.53;5050603;28;20041;-67
2022/07/12 05:34:02;;;;;;;11.00;10.00;;;;;;;19.20;58.80;102338.34;5051018;28;20048;-66
2022/07/12 05:36:28;;;;;;;11.57;10.48;;;;;;;19.28;58.49;102349.47;5050822;28;20045;-67
2022/07/12 05:38:55;;;;;;;13.10;11.38;;;;;;;19.36;59.06;102348.84;5051010;28;20048;-66
2022/07/12 05:41:21;;;;;;;15.18;11.55;;;;;;;19.43;59.18;102347.34;5050668;28;20048;-67
2022/07/12 05:43:48;;;;;;;14.57;12.90;;;;;;;19.51;58.87;102346.69;5050940;28;20398;-67
2022/07/12 05:46:15;;;;;;;16.00;14.35;;;;;;;19.59;59.63;102357.81;5050794;28;20410;-67
2022/07/12 05:48:41;;;;;;;19.27;14.75;;;;;;;19.68;59.38;102348.84;5051041;28;20039;-67
2022/07/12 05:53:53;;;;;;;17.35;14.70;;;;;;;19.89;60.05;102354.31;5054439;28;20053;-66
2022/07/12 05:56:20;;;;;;;17.42;15.57;;;;;;;20.01;60.17;102364.16;5054927;28;20134;-66
2022/07/12 05:58:47;;;;;;;17.40;15.70;;;;;;;20.14;60.21;102363.97;5054416;28;20043;-65
2022/07/12 06:01:13;;;;;;;17.35;15.75;;;;;;;20.29;60.34;102371.69;5054499;28;20045;-66
2022/07/12 06:03:41;;;;;;;18.60;16.70;;;;;;;20.44;60.72;102376.81;5054437;28;20048;-66
2022/07/12 06:06:07;;;;;;;18.55;16.75;;;;;;;20.57;60.73;102383.78;5054350;28;20067;-66
2022/07/12 06:08:34;;;;;;;18.92;16.92;;;;;;;20.69;60.82;102392.72;5054085;28;20033;-66
2022/07/12 06:11:01;;;;;;;18.15;16.35;;;;;;;20.80;60.58;102392.63;5054354;28;20068;-71
2022/07/12 06:13:31;;;;;;;18.20;16.38;;;;;;;20.91;60.79;102397.16;5054139;28;20091;-66
2022/07/12 06:15:59;;;;;;;17.70;15.90;;;;;;;21.07;61.13;102391.16;5054039;28;20045;-66
2022/07/12 06:18:25;;;;;;;17.90;16.20;;;;;;;21.29;61.04;102395.56;5052818;28;20041;-66
2022/07/12 06:20:52;;;;;;;17.08;15.48;;;;;;;21.53;60.99;102396.88;5054251;28;20441;-67
2022/07/12 06:23:23;;;;;;;16.58;14.98;;;;;;;21.78;60.97;102390.00;5053970;28;20037;-68
2022/07/12 06:25:49;;;;;;;13.48;11.38;;;;;;;22.01;60.66;102389.69;5053940;28;20064;-66
2022/07/12 06:28:21;;;;;;;12.23;10.43;;;;;;;22.25;60.82;102395.59;5053313;28;20071;-66
2022/07/12 06:30:48;;;;;;;10.90;9.88;;;;;;;22.52;60.38;102401.16;5054290;28;20037;-67
2022/07/12 06:33:15;;;;;;;10.85;9.75;;;;;;;22.78;59.86;102395.84;5053821;28;20045;-67
2022/07/12 06:35:41;;;;;;;10.88;9.77;;;;;;;23.01;59.90;102398.22;5052496;28;20045;-67
2022/07/12 06:38:08;;;;;;;10.13;9.18;;;;;;;23.20;59.23;102400.88;5053203;28;20045;-66
2022/07/12 06:40:34;;;;;;;10.18;9.10;;;;;;;23.33;59.08;102398.63;5053681;28;20563;-68
2022/07/12 06:43:11;;;;;;;9.93;8.93;;;;;;;23.44;58.66;102395.66;5053552;28;20570;-68
2022/07/12 06:45:38;;;;;;;9.32;8.40;;;;;;;23.58;58.81;102393.44;5053450;28;20049;-68
2022/07/12 06:48:05;;;;;;;10.82;9.73;;;;;;;23.73;58.52;102394.59;5053231;28;20104;-68
2022/07/12 06:50:32;;;;;;;10.82;9.88;;;;;;;23.84;58.20;102388.03;5053419;28;20108;-69
2022/07/12 06:53:02;;;;;;;10.25;9.35;;;;;;;23.98;57.72;102392.97;5053623;28;20055;-69
2022/07/12 06:55:30;;;;;;;10.88;9.20;;;;;;;24.11;57.78;102387.06;5053496;28;20125;-70
2022/07/12 06:57:57;;;;;;;11.88;9.93;;;;;;;24.28;57.68;102387.03;5053013;28;20045;-68
2022/07/12 07:00:23;;;;;;;10.98;9.98;;;;;;;24.45;57.38;102382.50;5052219;28;20045;-68
2022/07/12 07:02:53;;;;;;;12.68;10.23;;;;;;;24.55;57.26;102380.53;5051852;28;20096;-68
2022/07/12 07:05:20;;;;;;;13.02;11.07;;;;;;;24.67;57.53;102383.84;5053451;28;20422;-68
2022/07/12 07:07:46;;;;;;;11.20;10.13;;;;;;;24.87;57.00;102390.81;5053069;28;20052;-67
2022/07/12 07:10:14;;;;;;;12.70;10.05;;;;;;;25.06;56.66;102392.47;5053338;28;20045;-68
2022/07/12 07:12:44;;;;;;;10.15;8.98;;;;;;;25.21;56.45;102384.44;5052484;28;20098;-68
2022/07/12 07:15:13;;;;;;;20.15;9.05;;;;;;;25.33;55.98;102386.75;5052392;28;20063;-68
2022/07/12 07:17:40;;;;;;;9.82;7.93;;;;;;;25.42;55.73;102384.88;5051686;28;20076;-67
2022/07/12 07:20:07;;;;;;;8.52;7.78;;;;;;;25.53;55.17;102390.03;5051513;28;20054;-67
2022/07/12 07:22:37;;;;;;;10.20;9.20;;;;;;;25.67;54.87;102382.16;5052951;28;20045;-67
2022/07/12 07:25:05;;;;;;;10.13;8.90;;;;;;;25.77;54.55;102378.22;5052554;28;20072;-67
2022/07/12 07:27:32;;;;;;;8.43;7.47;;;;;;;25.90;54.12;102381.31;5052511;28;20491;-67
2022/07/12 07:32:45;;;;;;;8.15;7.35;;;;;;;26.13;53.60;102378.75;5052467;28;20047;-67
2022/07/12 07:35:17;;;;;;;8.65;7.78;;;;;;;26.23;53.26;102389.56;5051243;28;20128;-67
2022/07/12 07:37:44;;;;;;;10.23;8.25;;;;;;;26.34;53.03;102389.25;5052491;28;20126;-67
2022/07/12 07:40:10;;;;;;;9.00;8.10;;;;;;;26.48;52.67;102385.75;5052236;28;20051;-67
2022/07/12 07:42:40;;;;;;;12.18;8.38;;;;;;;26.64;52.50;102386.75;5052195;28;20059;-68
2022/07/12 07:45:08;;;;;;;8.60;7.80;;;;;;;26.78;52.17;102381.38;5052475;28;20033;-68
2022/07/12 07:47:48;;;;;;;20.83;6.47;;;;;;;26.86;51.69;102384.13;5052044;28;20044;-67
2022/07/12 07:50:35;;;;;;;8.80;7.10;;;;;;;26.92;51.59;102382.53;5051007;28;20120;-67
2022/07/12 07:53:06;;;;;;;8.38;7.53;;;;;;;26.96;51.04;102383.03;5051617;28;20445;-67
2022/07/12 07:55:32;;;;;;;7.43;6.70;;;;;;;26.99;50.96;102382.72;5052021;28;20037;-67
2022/07/12 07:58:00;;;;;;;9.32;6.22;;;;;;;27.02;50.90;102385.09;5052185;28;20495;-67
2022/07/12 08:00:27;;;;;;;7.03;6.28;;;;;;;27.07;50.56;102386.28;5051841;28;20055;-67
2022/07/12 08:02:57;;;;;;;5.78;5.20;;;;;;;27.14;50.27;102380.91;5052026;28;20041;-67
2022/07/12 08:05:24;;;;;;;7.10;6.40;;;;;;;27.23;50.16;102374.31;5051797;28;20567;-66
2022/07/12 08:07:54;;;;;;;8.55;7.65;;;;;;;27.35;50.05;102383.03;5052027;28;20560;-68
2022/07/12 08:10:21;;;;;;;8.65;7.30;;;;;;;27.44;49.92;102374.50;5052507;28;20367;-68
2022/07/12 08:12:49;;;;;;;6.88;6.28;;;;;;;27.53;49.77;102378.09;5051678;28;20041;-68
2022/07/12 08:15:16;;;;;;;8.15;7.30;;;;;;;27.64;49.50;102371.31;5051642;28;20525;-67
2022/07/12 08:17:42;;;;;;;8.15;6.90;;;;;;;27.72;49.26;102369.34;5051810;28;20048;-67
2022/07/12 08:20:18;;;;;;;8.13;7.38;;;;;;;27.80;49.05;102371.19;5051932;28;20076;-68
2022/07/12 08:23:05;;;;;;;10.13;8.93;;;;;;;27.93;48.93;102373.31;5051369;28;20041;-68
2022/07/12 08:25:32;;;;;;;7.80;7.10;;;;;;;28.01;48.83;102367.72;5051502;28;20110;-68
2022/07/12 08:27:59;;;;;;;8.02;7.22;;;;;;;28.07;48.67;102364.22;5051937;28;20091;-68
2022/07/12 08:30:26;;;;;;;7.30;6.60;;;;;;;28.11;48.45;102363.66;5051850;28;20276;-68
2022/07/12 08:32:55;;;;;;;8.88;7.88;;;;;;;28.15;48.21;102364.13;5051044;28;20087;-68
2022/07/12 08:35:22;;;;;;;7.38;6.47;;;;;;;28.16;48.13;102363.94;5051230;28;20576;-68
2022/07/12 08:37:48;;;;;;;7.70;6.90;;;;;;;28.23;47.84;102375.13;5051626;28;20502;-68
2022/07/12 08:40:15;;;;;;;7.78;7.07;;;;;;;28.29;48.03;102379.06;5051700;28;20106;-69
2022/07/12 08:42:47;;;;;;;8.30;7.13;;;;;;;28.35;47.70;102375.56;5051040;28;20072;-68
2022/07/12 08:45:15;;;;;;;10.43;5.78;;;;;;;28.42;47.50;102376.50;5051624;28;20041;-68
2022/07/12 08:47:42;;;;;;;13.18;6.53;;;;;;;28.50;47.12;102381.09;5051557;28;20068;-68
2022/07/12 08:50:17;;;;;;;12.02;6.80;;;;;;;28.53;46.87;102383.47;5051689;28;20550;-68
2022/07/12 08:52:55;;;;;;;8.00;7.20;;;;;;;28.60;46.53;102382.50;5051734;28;20266;-69
2022/07/12 08:55:30;;;;;;;9.10;7.80;;;;;;;28.69;46.20;102383.28;5051280;28;20049;-68
2022/07/12 08:57:59;;;;;;;8.48;7.53;;;;;;;28.66;45.92;102383.66;5051524;28;20044;-68
2022/07/12 09:00:27;;;;;;;8.32;7.40;;;;;;;28.60;45.82;102384.41;5051384;28;20045;-68
2022/07/12 09:03:03;;;;;;;9.85;8.00;;;;;;;28.62;45.69;102383.19;5051084;28;20513;-68
2022/07/12 09:05:32;;;;;;;8.18;7.38;;;;;;;28.67;45.45;102389.00;5050096;28;20060;-68
2022/07/12 09:08:07;;;;;;;7.25;6.55;;;;;;;28.72;45.28;102400.34;5051515;28;20052;-68
2022/07/12 09:10:50;;;;;;;7.55;6.85;;;;;;;28.79;44.93;102394.91;5051992;28;20061;-68
2022/07/12 09:13:21;;;;;;;6.97;6.25;;;;;;;28.86;44.70;102390.34;5050835;28;20045;-68
2022/07/12 09:15:47;;;;;;;9.02;8.13;;;;;;;28.94;44.57;102395.78;5051132;28;20040;-68
2022/07/12 09:18:22;;;;;;;9.13;8.20;;;;;;;29.00;44.49;102392.28;5051242;28;20475;-68
2022/07/12 09:20:55;;;;;;;9.32;7.97;;;;;;;29.06;44.37;102387.88;5051423;28;20116;-68
2022/07/12 09:23:23;;;;;;;8.68;7.88;;;;;;;29.14;44.13;102389.66;5051453;28;20132;-68
2022/07/12 09:25:49;;;;;;;12.95;7.53;;;;;;;29.25;44.09;102392.78;5053485;28;20071;-68
2022/07/12 09:28:16;;;;;;;7.72;6.88;;;;;;;29.41;43.76;102394.47;5053757;28;20410;-68
2022/07/12 09:30:52;;;;;;;7.80;6.80;;;;;;;29.50;43.21;102390.53;5055126;28;20406;-69
2022/07/12 09:36:06;;;;;;;8.35;7.10;;;;;;;29.68;43.20;102390.94;5054137;28;20446;-68
2022/07/12 09:38:54;;;;;;;6.70;6.00;;;;;;;29.74;42.46;102386.56;5055566;28;20124;-69
2022/07/12 09:41:21;;;;;;;6.90;5.40;;;;;;;29.87;42.81;102380.28;5055496;28;20069;-68
2022/07/12 09:43:53;;;;;;;7.43;5.75;;;;;;;30.02;42.48;102381.09;5054185;28;20041;-69
2022/07/12 09:46:19;;;;;;;6.38;5.78;;;;;;;30.13;42.36;102382.44;5055261;28;20045;-69
2022/07/12 09:48:46;;;;;;;7.10;6.50;;;;;;;30.20;41.84;102387.00;5054589;28;20147;-68
2022/07/12 09:51:14;;;;;;;11.32;6.75;;;;;;;30.23;41.46;102374.63;5055306;28;20051;-69
2022/07/12 09:53:48;;;;;;;7.32;6.32;;;;;;;30.24;41.18;102368.03;5054318;28;20040;-69
2022/07/12 09:56:16;;;;;;;5.70;4.93;;;;;;;30.34;41.52;102368.53;5054954;28;20106;-69
2022/07/12 09:58:53;;;;;;;6.95;6.25;;;;;;;30.44;41.21;102371.81;5054940;28;20052;-69
2022/07/12 10:01:21;;;;;;;8.27;7.47;;;;;;;30.54;41.35;102369.53;5054514;28;20052;-69
2022/07/12 10:03:51;;;;;;;10.27;9.27;;;;;;;30.64;41.13;102364.53;5054749;28;20056;-69
2022/07/12 10:06:29;;;;;;;8.98;8.18;;;;;;;30.70;40.83;102364.75;5054610;28;20060;-69
2022/07/12 10:09:02;;;;;;;6.68;5.93;;;;;;;30.78;40.83;102359.91;5054594;28;20056;-69
2022/07/12 10:11:30;;;;;;;6.80;6.18;;;;;;;30.83;40.50;102364.81;5054108;28;20483;-68
2022/07/12 10:14:22;;;;;;;7.05;6.30;;;;;;;30.81;39.97;102362.25;5054647;28;20041;-69
2022/07/12 10:16:53;;;;;;;6.85;6.15;;;;;;;30.82;40.24;102361.19;5054372;28;20245;-69
2022/07/12 10:19:35;;;;;;;7.03;6.32;;;;;;;30.94;40.37;102358.69;5054364;28;20544;-69
2022/07/12 10:22:18;;;;;;;8.18;6.50;;;;;;;31.13;40.25;102348.72;5053868;28;20463;-68
2022/07/12 10:24:52;;;;;;;6.68;5.50;;;;;;;31.38;40.18;102349.91;5054356;28;20048;-69
2022/07/12 10:27:28;;;;;;;9.68;5.80;;;;;;;31.57;39.57;102351.88;5034368;28;20060;-69
2022/07/12 10:30:12;;;;;;;5.80;5.20;;;;;;;31.71;39.35;102347.22;5036881;28;20075;-69
2022/07/12 10:32:44;;;;;;;5.90;3.43;;;;;;;31.88;39.00;102344.84;5054252;28;20091;-69
2022/07/12 10:35:19;;;;;;;5.75;4.20;;;;;;;32.06;39.05;102349.78;5053987;28;20303;-69
2022/07/12 10:38:04;;;;;;;;;;;;;;;32.20;39.48;102341.22;5054805;28;20045;-69
2022/07/12 10:40:34;;;;;;;5.10;4.55;;;;;;;32.35;39.05;102341.00;5054157;28;20114;-69
2022/07/12 10:43:01;;;;;;;5.50;4.60;;;;;;;32.43;38.85;102342.72;5053924;28;20048;-70
2022/07/12 10:45:32;;;;;;;5.57;5.07;;;;;;;32.49;38.38;102341.84;5054064;28;20518;-69
2022/07/12 10:48:06;;;;;;;7.07;4.75;;;;;;;32.49;38.30;102339.91;5054216;28;20481;-69
2022/07/12 10:50:43;;;;;;;4.80;4.28;;;;;;;32.49;37.67;102336.28;5053571;28;20041;-69
2022/07/12 10:53:19;;;;;;;4.45;3.08;;;;;;;32.53;37.62;102341.19;5054003;28;20048;-69
2022/07/12 10:56:06;;;;;;;5.57;3.88;;;;;;;32.54;37.14;102333.69;5054042;28;20057;-69
2022/07/12 10:58:44;;;;;;;4.60;2.80;;;;;;;32.47;37.21;102333.72;5053989;28;20409;-69
2022/07/12 11:01:12;;;;;;;4.80;3.53;;;;;;;32.51;37.41;102329.41;5052740;28;20053;-69
2022/07/12 11:03:44;;;;;;;4.10;3.42;;;;;;;32.63;37.66;102334.31;5052921;28;20055;-69
2022/07/12 11:06:38;;;;;;;6.10;3.50;;;;;;;32.78;37.17;102330.22;5053874;28;20449;-69
2022/07/12 11:09:10;;;;;;;3.85;2.85;;;;;;;32.93;37.25;102327.16;5050875;28;20106;-69
2022/07/12 11:11:45;;;;;;;3.30;3.00;;;;;;;33.01;37.01;102332.47;5035029;28;20511;-69
2022/07/12 11:14:21;;;;;;;5.45;3.13;;;;;;;33.09;37.15;102335.00;5053724;28;20036;-69
2022/07/12 11:16:51;;;;;;;6.68;4.32;;;;;;;33.17;36.76;102331.09;5053732;28;20422;-68
2022/07/12 11:19:23;;;;;;;3.45;2.95;;;;;;;33.22;36.42;102338.78;5053473;28;20128;-69
2022/07/12 11:21:55;;;;;;;8.52;3.67;;;;;;;33.31;36.37;102340.25;5053264;28;20076;-69
2022/07/12 11:24:31;;;;;;;3.67;2.90;;;;;;;33.40;36.39;102344.47;5053754;28;20051;-69
2022/07/12 11:27:01;;;;;;;3.08;2.38;;;;;;;33.38;35.68;102338.28;5053476;28;20053;-69
2022/07/12 11:29:28;;;;;;;4.03;3.45;;;;;;;33.32;35.26;102341.97;5053511;28;20047;-69
2022/07/12 11:32:06;;;;;;;3.13;2.70;;;;;;;33.17;35.20;102331.97;5053483;28;20244;-69
2022/07/12 11:34:40;;;;;;;3.90;3.00;;;;;;;33.07;35.13;102333.50;5053680;28;20120;-68
2022/07/12 11:37:07;;;;;;;3.70;2.75;;;;;;;32.98;35.18;102329.28;5053446;28;20068;-67
2022/07/12 11:39:38;;;;;;;3.58;2.35;;;;;;;32.92;35.36;102331.03;5053044;28;20040;-68
2022/07/12 11:42:06;;;;;;;2.00;1.80;;;;;;;32.87;35.46;102325.28;5053281;28;20041;-69